createdAt,value
2018-09-28T08:37:22.624Z,56.50
2018-09-28T08:39:58.502Z,56.20
2018-09-28T08:45:19.592Z,55.70
2018-09-28T08:50:34.171Z,54.40
2018-09-28T08:53:10.811Z,54.30
2018-09-28T09:01:09.190Z,54.80
2018-09-28T09:03:48.957Z,54.90
2018-09-28T09:09:01.347Z,55.10
2018-09-28T09:14:14.311Z,54.90
2018-09-28T09:24:47.140Z,54.40
2018-09-28T09:27:26.269Z,54.00
2018-09-28T09:30:03.027Z,53.70
2018-09-28T09:35:20.517Z,53.00
2018-09-28T09:40:49.614Z,51.50
2018-09-28T09:43:30.269Z,51.60
2018-09-28T09:46:04.963Z,51.00
2018-09-28T09:48:39.687Z,51.60
2018-09-28T09:51:16.362Z,51.20
2018-09-28T09:53:51.079Z,51.50
2018-09-28T09:56:26.142Z,51.20
2018-09-28T09:59:02.295Z,51.00
2018-09-28T10:01:42.796Z,50.50
2018-09-28T10:04:18.006Z,50.60
2018-09-28T10:06:53.090Z,50.90
2018-09-28T10:12:10.582Z,51.00
2018-09-28T10:20:50.380Z,50.90
2018-09-28T10:26:13.472Z,50.90
2018-09-28T10:28:53.074Z,50.80
2018-09-28T10:31:28.663Z,50.70
2018-09-28T10:34:27.680Z,50.10
2018-09-28T10:37:29.895Z,50.30
2018-09-28T10:40:29.167Z,50.00
2018-09-28T10:43:04.267Z,50.10
2018-09-28T10:45:40.982Z,49.60
2018-09-28T10:48:15.269Z,50.00
2018-09-28T10:50:49.732Z,50.90
2018-09-28T10:53:24.403Z,49.10
2018-09-28T10:55:59.214Z,48.70
2018-09-28T10:58:33.973Z,49.20
2018-09-28T11:03:49.535Z,48.70
2018-09-28T11:06:24.870Z,48.20
2018-09-28T11:08:59.747Z,47.40
2018-09-28T11:11:36.314Z,46.60
2018-09-28T11:14:11.123Z,46.20
2018-09-28T11:16:46.884Z,46.00
2018-09-28T11:19:21.817Z,45.60
2018-09-28T11:21:57.645Z,45.30
2018-09-28T11:24:32.335Z,45.00
2018-09-28T11:27:09.088Z,45.10
2018-09-28T11:29:43.815Z,45.40
2018-09-28T11:32:23.091Z,45.00
2018-09-28T11:35:01.810Z,45.30
2018-09-28T11:37:36.599Z,44.50
2018-09-28T11:40:11.774Z,44.40
2018-09-28T11:42:46.355Z,43.80
2018-09-28T11:45:21.204Z,44.90
2018-09-28T11:48:02.491Z,44.90
2018-09-28T11:50:37.153Z,45.60
2018-09-28T11:53:11.698Z,44.60
2018-09-28T11:58:26.014Z,43.90
2018-09-28T12:01:01.759Z,44.30
2018-09-28T12:06:11.275Z,43.50
2018-09-28T12:08:51.729Z,43.30
2018-09-28T12:11:26.575Z,43.60
2018-09-28T12:14:01.448Z,44.50
2018-09-28T12:16:38.372Z,43.70
2018-09-28T12:19:13.091Z,43.40
2018-09-28T12:21:47.885Z,43.50
2018-09-28T12:24:22.495Z,42.50
2018-09-28T12:26:57.153Z,42.80
2018-09-28T12:29:31.777Z,42.80
2018-09-28T12:32:06.585Z,42.90
2018-09-28T12:34:42.427Z,41.90
2018-09-28T12:37:17.425Z,42.00
2018-09-28T12:39:53.124Z,42.00
2018-09-28T12:42:27.971Z,42.00
2018-09-28T12:45:04.396Z,41.80
2018-09-28T12:47:39.399Z,41.90
2018-09-28T12:50:14.251Z,42.00
2018-09-28T12:52:52.915Z,41.20
2018-09-28T12:55:31.061Z,41.30
2018-09-28T12:58:08.235Z,41.50
2018-09-28T13:00:43.521Z,41.30
2018-09-28T13:03:25.728Z,41.20
2018-09-28T13:18:18.349Z,39.80
2018-09-28T13:21:08.424Z,40.60
2018-09-28T13:23:45.725Z,39.60
2018-09-28T13:30:13.794Z,40.10
2018-09-28T13:32:49.219Z,39.50
2018-09-28T13:35:24.613Z,38.60
2018-09-28T13:38:07.104Z,38.70
2018-09-28T13:43:19.991Z,37.90
2018-09-28T13:48:35.484Z,39.70
2018-09-28T13:51:15.527Z,39.00
2018-09-28T13:56:32.157Z,37.60
2018-09-28T14:04:28.602Z,38.00
2018-09-28T14:12:18.923Z,37.30
2018-09-28T14:14:56.169Z,38.20
2018-09-28T14:17:35.339Z,37.40
2018-09-28T14:20:10.685Z,37.30
2018-09-28T14:22:48.875Z,37.40
2018-09-28T14:25:27.630Z,37.90
2018-09-28T14:28:03.020Z,37.40
2018-09-28T14:33:15.287Z,37.30
2018-09-28T14:38:27.226Z,37.60
2018-09-28T14:48:49.687Z,37.50
2018-09-28T14:51:26.289Z,38.00
2018-09-28T14:54:01.128Z,37.90
2018-09-28T14:56:36.893Z,38.50
2018-09-28T14:59:11.673Z,38.70
2018-09-28T15:01:46.514Z,38.70
2018-09-28T15:04:22.082Z,38.90
2018-09-28T15:06:56.880Z,39.20
2018-09-28T15:09:31.593Z,39.30
2018-09-28T15:12:07.579Z,39.50
2018-09-28T15:14:43.236Z,39.70
2018-09-28T15:17:41.294Z,39.80
2018-09-28T15:20:16.049Z,39.80
2018-09-28T15:22:50.899Z,40.10
2018-09-28T15:25:26.266Z,40.30
2018-09-28T15:28:01.029Z,40.50
2018-09-28T15:30:35.835Z,40.60
2018-09-28T15:33:10.655Z,40.60
2018-09-28T15:35:45.194Z,40.90
2018-09-28T15:38:19.922Z,41.30
2018-09-28T15:40:54.638Z,41.50
2018-09-28T15:43:29.342Z,41.60
2018-09-28T15:46:04.123Z,41.80
2018-09-28T15:48:39.046Z,42.00
2018-09-28T15:51:13.802Z,42.10
2018-09-28T15:53:53.053Z,42.30
2018-09-28T15:56:28.611Z,42.40
2018-09-28T15:59:04.192Z,43.10
2018-09-28T16:01:39.642Z,42.70
2018-09-28T16:04:15.256Z,42.80
2018-09-28T16:06:55.016Z,43.10
2018-09-28T16:09:30.748Z,43.20
2018-09-28T16:12:09.332Z,43.40
2018-09-28T16:14:44.397Z,43.40
2018-09-28T16:19:54.562Z,43.70
2018-09-28T16:22:29.934Z,43.80
2018-09-28T16:27:42.554Z,43.70
2018-09-28T16:30:18.249Z,43.80
2018-09-28T16:32:53.341Z,43.80
2018-09-28T16:35:31.909Z,44.00
2018-09-28T16:38:12.821Z,44.30
2018-09-28T16:40:50.732Z,44.40
2018-09-28T16:43:28.638Z,44.40
2018-09-28T16:46:07.946Z,44.40
2018-09-28T16:48:47.404Z,44.40
2018-09-28T16:53:59.634Z,44.30
2018-09-28T16:56:34.064Z,44.80
2018-09-28T16:59:08.844Z,44.40
2018-09-28T17:01:44.976Z,44.40
2018-09-28T17:04:20.077Z,44.70
2018-09-28T17:06:55.547Z,45.40
2018-09-28T17:09:30.299Z,45.70
2018-09-28T17:12:06.161Z,45.20
2018-09-28T17:14:40.916Z,45.10
2018-09-28T17:17:15.690Z,45.10
2018-09-28T17:22:28.087Z,45.40
2018-09-28T17:25:02.747Z,45.40
2018-09-28T17:27:37.527Z,45.30
2018-09-28T17:30:12.429Z,45.30
2018-09-28T17:32:48.260Z,45.60
2018-09-28T17:35:23.090Z,45.80
2018-09-28T17:37:58.587Z,46.10
2018-09-28T17:40:37.732Z,46.30
2018-09-28T17:58:00.419Z,46.50
2018-09-28T18:00:55.712Z,46.30
2018-09-28T18:03:40.885Z,46.80
2018-09-28T18:06:20.340Z,47.30
2018-09-28T18:09:00.288Z,47.50
2018-09-28T18:11:38.197Z,47.70
2018-09-28T18:14:13.677Z,47.80
2018-09-28T18:16:55.809Z,47.90
2018-09-28T18:19:33.139Z,48.20
2018-09-28T18:24:43.300Z,48.60
2018-09-28T18:32:31.785Z,49.20
2018-09-28T18:35:07.379Z,49.20
2018-09-28T18:37:42.736Z,49.40
2018-09-28T18:40:18.511Z,49.50
2018-09-28T18:42:54.255Z,49.60
2018-09-28T18:45:32.791Z,49.70
2018-09-28T18:48:10.694Z,50.00
2018-09-28T18:50:46.092Z,50.10
2018-09-28T18:55:54.645Z,50.50
2018-09-28T18:58:29.457Z,50.50
2018-09-28T19:01:07.840Z,50.70
2018-09-28T19:03:43.862Z,50.90
2018-09-28T19:06:23.655Z,51.00
2018-09-28T19:09:03.451Z,51.20
2018-09-28T19:11:42.210Z,51.30
2018-09-28T19:14:20.353Z,51.30
2018-09-28T19:16:57.027Z,51.50
2018-09-28T19:19:32.821Z,51.60
2018-09-28T19:24:46.416Z,51.60
2018-09-28T19:27:21.225Z,51.60
2018-09-28T19:32:32.113Z,52.00
2018-09-28T19:35:07.279Z,52.50
2018-09-28T19:37:42.048Z,52.70
2018-09-28T19:40:20.912Z,53.00
2018-09-28T19:42:59.225Z,53.00
2018-09-28T19:45:33.892Z,53.10
2018-09-28T19:50:46.984Z,53.30
2018-09-28T19:55:57.771Z,53.60
2018-09-28T19:58:34.442Z,53.80
2018-09-28T20:01:10.356Z,54.00
2018-09-28T20:03:48.957Z,54.00
2018-09-28T20:09:01.922Z,54.20
2018-09-28T20:11:41.870Z,54.10
2018-09-28T20:14:18.073Z,54.20
2018-09-28T20:16:56.038Z,54.30
2018-09-28T20:19:34.738Z,54.30
2018-09-28T20:22:11.778Z,54.30
2018-09-28T20:24:51.017Z,54.30
2018-09-28T20:27:27.271Z,54.10
2018-09-28T20:32:37.253Z,54.30
2018-09-28T20:35:12.399Z,54.20
2018-09-28T20:40:24.950Z,54.50
2018-09-28T20:43:03.267Z,54.60
2018-09-28T20:50:52.657Z,54.80
2018-09-28T20:56:10.443Z,54.80
2018-09-28T20:58:48.428Z,54.70
2018-09-28T21:01:28.473Z,54.70
2018-09-28T21:06:41.240Z,54.90
2018-09-28T21:09:17.914Z,55.10
2018-09-28T21:11:56.314Z,55.30
2018-09-28T21:14:32.061Z,55.30
2018-09-28T21:22:24.590Z,55.40
2018-09-28T21:25:00.747Z,55.40
2018-09-28T21:27:40.365Z,55.50
2018-09-28T21:30:16.603Z,55.60
2018-09-28T21:32:57.389Z,55.70
2018-09-28T21:38:13.770Z,56.10
2018-09-28T21:43:26.064Z,56.30
2018-09-28T21:46:06.200Z,56.50
2018-09-28T21:48:42.947Z,56.60
2018-09-28T21:53:58.351Z,54.60
2018-09-28T21:56:37.328Z,53.90
2018-09-28T21:59:13.530Z,53.20
2018-09-28T22:01:52.892Z,52.90
2018-09-28T22:04:28.738Z,52.20
2018-09-28T22:07:04.611Z,51.80
2018-09-28T22:12:17.251Z,50.90
2018-09-28T22:14:56.535Z,50.80
2018-09-28T22:20:08.968Z,50.80
2018-09-28T22:25:23.221Z,50.50
2018-09-28T22:28:02.424Z,50.20
2018-09-28T22:30:42.029Z,50.10
2018-09-28T22:33:17.694Z,49.80
2018-09-28T22:35:53.370Z,49.80
2018-09-28T22:38:29.382Z,49.70
2018-09-28T22:43:40.380Z,49.20
2018-09-28T22:48:56.426Z,49.20
2018-09-28T22:56:55.466Z,48.70
2018-09-28T23:02:10.773Z,48.50
2018-09-28T23:07:26.774Z,48.20
2018-09-28T23:20:35.753Z,46.90
2018-09-28T23:23:12.265Z,46.40
2018-09-28T23:28:28.979Z,46.30
2018-09-28T23:41:38.138Z,45.50
2018-09-28T23:46:50.881Z,45.00
2018-09-28T23:52:05.748Z,44.70
2018-09-28T23:54:48.032Z,44.70
2018-09-28T23:57:23.057Z,44.70
